Latest Weather Observations for Perth Airport

IDW60801

Issued at 4:02 pm WST Sunday 26 April 2015 (issued every 30 minutes, with the page automatically refreshed every 10 minutes)

About weather observations | Map of weather stations | Latest weather observations for WA | Other Formats
Station Details ID: 009021 Name: PERTH AIRPORT Lat: -31.93 Lon: 115.98 Height: 15.4 m
Data from the previous 72 hours. | See also: Recent months at Perth Airport
Date/Time
WST
Temp
°C
App
Temp
°C
Dew
Point
Rel
Hum
%
Delta-T
°C
Wind Press
QNH
hPa
Press
MSL
hPa
Rain
since 9 am
mm
Dir
 
Spd
km/h
Gust
km/h
Spd
kts
Gust
kts
26/04:00pm 24.2 19.0 2.4 24 10.4 ENE 19 32 10 17 1022.6 - 0.0
26/03:30pm 24.2 17.5 1.3 22 10.7 E 26 33 14 18 1022.6 - 0.0
26/03:00pm 24.2 17.7 2.4 24 10.4 E 26 33 14 18 1022.5 1022.5 0.0
26/02:30pm 24.2 17.7 2.4 24 10.4 ENE 26 35 14 19 1022.7 - 0.0
26/02:00pm 23.8 17.2 2.3 24 10.2 E 26 43 14 23 1022.8 - 0.0
26/01:30pm 24.1 19.7 4.5 28 9.7 NE 17 32 9 17 1023.0 - 0.0
26/01:07pm 23.4 16.4 3.9 28 9.5 ENE 30 48 16 26 1023.3 - 0.0
26/01:00pm 23.4 18.3 3.2 26 9.8 ENE 19 32 10 17 1023.3 - 0.0
26/12:30pm 22.8 18.3 4.1 29 9.1 NE 17 24 9 13 1023.9 - 0.0
26/12:00pm 22.4 17.0 4.7 31 8.7 ENE 22 30 12 16 1024.6 1024.7 0.0
26/11:30am 21.5 15.3 4.4 32 8.3 ENE 26 35 14 19 1025.0 - 0.0
26/11:00am 21.3 14.8 4.7 33 8.1 NE 28 37 15 20 1025.4 - 0.0
26/10:30am 20.5 14.0 4.6 35 7.7 ENE 28 37 15 20 1025.7 - 0.0
26/10:00am 19.6 14.1 5.8 40 6.8 ENE 24 30 13 16 1025.8 - 0.0
26/09:30am 17.8 11.4 5.3 43 6.0 ENE 28 35 15 19 1026.1 - 0.0
26/09:00am 16.3 9.8 4.8 46 5.4 ENE 28 35 15 19 1026.2 1026.3 0.0
26/08:00am 13.6 6.1 4.7 55 4.1 ENE 33 41 18 22 1025.9 - 0.0
26/07:30am 12.9 5.4 4.6 57 3.8 E 33 44 18 24 1025.5 - 0.0
26/07:00am 12.4 5.5 4.4 58 3.6 E 30 43 16 23 1025.1 - 0.0
26/06:30am 12.4 6.6 4.4 58 3.6 ENE 24 33 13 18 1025.1 - 0.0
26/06:00am 12.6 5.7 4.4 57 3.7 ENE 30 37 16 20 1024.8 1024.9 0.0
26/05:30am 12.6 6.4 4.4 57 3.7 ENE 26 32 14 17 1024.8 - 0.0
26/05:00am 12.5 6.7 4.3 57 3.7 E 24 32 13 17 1024.7 - 0.0
26/04:30am 12.5 7.1 4.6 58 3.6 ENE 22 28 12 15 1024.8 - 0.0
26/04:00am 12.8 8.0 4.4 56 3.8 ENE 19 26 10 14 1024.5 - 0.0
26/03:30am 13.2 8.4 4.4 55 4.0 ENE 19 26 10 14 1024.5 - 0.0
26/03:00am 13.4 9.0 4.7 55 4.0 ENE 17 28 9 15 1024.6 1024.7 0.0
26/02:30am 13.9 9.8 4.5 53 4.3 NE 15 24 8 13 1024.6 - 0.0
26/02:00am 14.4 10.7 4.7 52 4.5 NE 13 22 7 12 1024.6 - 0.0
26/01:30am 15.1 10.6 4.2 48 5.0 ENE 17 30 9 16 1024.5 - 0.0
26/01:00am 15.1 11.0 4.5 49 4.9 ENE 15 26 8 14 1024.5 - 0.0
26/12:30am 15.3 10.9 4.5 48 5.0 ENE 17 32 9 17 1024.5 - 0.0
26/12:00am 15.7 10.7 4.5 47 5.2 ENE 20 30 11 16 1024.4 1024.5 0.0
 
Date/Time
WST
Temp
°C
App
Temp
°C
Dew
Point
Rel
Hum
%
Delta-T
°C
Wind Press
QNH
hPa
Press
MSL
hPa
Rain
since 9 am
mm
Dir
 
Spd
km/h
Gust
km/h
Spd
kts
Gust
kts
25/11:30pm 15.8 9.7 4.7 47 5.2 E 26 37 14 20 1024.6 - 0.0
25/11:00pm 16.1 9.6 4.5 46 5.4 ESE 28 50 15 27 1024.6 - 0.0
25/10:57pm 16.2 9.7 4.7 46 5.4 ESE 28 50 15 27 1024.6 - 0.0
25/10:30pm 15.6 9.8 4.4 47 5.2 E 24 33 13 18 1024.7 - 0.0
25/10:00pm 15.7 10.8 4.0 45 5.4 ESE 19 26 10 14 1024.8 - 0.0
25/09:30pm 14.9 10.6 3.4 46 5.2 ESE 15 19 8 10 1024.8 - 0.0
25/09:00pm 13.2 9.4 3.9 53 4.2 E 13 17 7 9 1024.7 1024.8 0.0
25/08:30pm 12.7 8.9 4.0 55 3.9 ESE 13 17 7 9 1024.6 - 0.0
25/08:00pm 13.8 10.1 4.4 53 4.3 SSE 13 15 7 8 1024.4 - 0.0
25/07:30pm 15.1 11.4 4.5 49 4.9 SE 13 15 7 8 1024.2 - 0.0
25/07:00pm 15.7 11.6 4.5 47 5.2 SE 15 19 8 10 1023.9 - 0.0
25/06:30pm 17.1 14.1 4.0 41 6.1 ESE 9 11 5 6 1023.8 - 0.0
25/05:30pm 20.6 14.6 1.2 27 8.8 E 22 30 12 16 1023.2 - 0.0
25/05:00pm 21.5 15.7 2.1 27 9.0 E 22 32 12 17 1022.9 - 0.0
25/04:30pm 22.1 16.2 1.9 26 9.4 E 22 30 12 16 1022.7 - 0.0
25/04:00pm 22.2 15.1 1.3 25 9.6 E 28 37 15 20 1022.7 - 0.0
25/03:30pm 22.7 16.3 1.2 24 9.9 E 24 32 13 17 1022.8 - 0.0
25/03:00pm 22.4 15.4 1.7 25 9.6 E 28 39 15 21 1022.8 1022.8 0.0
25/02:30pm 22.6 15.6 1.7 25 9.8 E 28 37 15 20 1022.9 - 0.0
25/02:00pm 22.2 15.9 1.3 25 9.6 E 24 37 13 20 1023.1 - 0.0
25/01:30pm 22.1 16.3 2.5 27 9.3 ENE 22 37 12 20 1023.5 - 0.0
25/01:00pm 20.7 13.4 2.4 29 8.5 ENE 30 37 16 20 1023.9 - 0.0
25/12:30pm 21.1 13.9 3.1 30 8.5 ENE 30 39 16 21 1024.5 - 0.0
25/12:00pm 20.2 14.3 3.8 34 7.8 ENE 24 35 13 19 1025.1 1025.2 0.0
25/11:30am 19.9 13.6 3.9 34 7.6 ENE 26 41 14 22 1025.5 - 0.0
25/11:00am 19.5 12.8 3.8 35 7.5 NE 28 37 15 20 1025.8 - 0.0
25/10:30am 18.2 11.2 3.9 38 6.7 ENE 30 37 16 20 1026.4 - 0.0
25/10:00am 17.6 10.9 3.9 40 6.4 NE 28 41 15 22 1026.8 - 0.0
25/09:30am 17.2 9.9 4.4 42 6.0 ENE 32 43 17 23 1027.2 - 0.0
25/09:00am 16.2 11.2 4.7 46 5.4 ENE 20 30 11 16 1027.3 1027.4 0.0
25/08:30am 14.7 10.2 6.1 56 4.1 E 19 26 10 14 1027.5 - 0.0
25/08:00am 14.1 9.4 6.1 58 3.8 E 20 32 11 17 1027.4 - 0.0
25/07:30am 12.7 8.2 6.1 64 3.1 ENE 19 28 10 15 1026.9 - 0.0
25/07:00am 12.0 7.9 6.0 66 2.8 ENE 17 30 9 16 1026.4 - 0.0
25/06:30am 12.2 8.4 6.0 66 2.9 ENE 15 24 8 13 1025.9 - 0.0
25/06:00am 12.3 7.8 6.1 66 2.9 ENE 19 28 10 15 1025.8 1025.9 0.0
25/05:30am 12.6 7.9 6.2 65 3.0 ENE 20 32 11 17 1025.8 - 0.0
25/05:00am 12.8 8.1 6.2 64 3.1 ENE 20 33 11 18 1025.6 - 0.0
25/04:30am 12.8 8.1 6.2 64 3.1 E 20 28 11 15 1025.3 - 0.0
25/04:00am 13.0 9.3 6.2 63 3.2 E 15 24 8 13 1025.2 - 0.0
25/03:30am 13.2 8.1 6.0 61 3.4 ENE 22 30 12 16 1025.2 - 0.0
25/03:00am 13.2 7.0 6.2 62 3.3 E 28 35 15 19 1025.1 1025.2 0.0
25/02:30am 13.5 7.7 6.1 61 3.5 E 26 33 14 18 1025.0 - 0.0
25/02:00am 14.0 8.1 5.7 57 3.9 E 26 35 14 19 1025.0 - 0.0
25/01:30am 14.3 8.0 5.6 56 4.1 E 28 43 15 23 1024.9 - 0.0
25/01:00am 14.7 9.5 5.3 53 4.4 E 22 33 12 18 1025.1 - 0.0
25/12:30am 14.7 8.4 5.6 54 4.3 E 28 39 15 21 1025.2 - 0.0
25/12:00am 15.0 9.8 5.5 53 4.5 E 22 35 12 19 1025.3 1025.4 0.0
 
Date/Time
WST
Temp
°C
App
Temp
°C
Dew
Point
Rel
Hum
%
Delta-T
°C
Wind Press
QNH
hPa
Press
MSL
hPa
Rain
since 9 am
mm
Dir
 
Spd
km/h
Gust
km/h
Spd
kts
Gust
kts
24/11:30pm 15.3 8.4 4.8 49 4.9 E 30 41 16 22 1025.4 - 0.0
24/11:00pm 15.3 9.1 4.5 48 5.0 E 26 37 14 20 1025.4 - 0.0
24/10:30pm 15.7 10.7 4.5 47 5.2 E 20 37 11 20 1025.9 - 0.0
24/10:00pm 16.0 12.3 4.4 46 5.4 E 13 24 7 13 1026.0 - 0.0
24/09:30pm 15.8 10.8 4.4 46 5.3 E 20 32 11 17 1025.9 - 0.0
24/09:00pm 15.9 11.5 4.5 46 5.3 E 17 26 9 14 1025.9 1026.0 0.0
24/08:30pm 16.4 10.6 4.4 45 5.6 E 24 33 13 18 1025.9 - 0.0
24/08:00pm 16.5 11.2 4.8 46 5.5 ESE 22 32 12 17 1026.0 - 0.0
24/07:30pm 17.2 11.3 4.1 41 6.1 E 24 35 13 19 1026.0 - 0.0
24/07:00pm 17.5 12.1 4.3 41 6.2 ESE 22 30 12 16 1025.7 - 0.0
24/06:30pm 17.6 12.7 4.2 41 6.3 ESE 19 28 10 15 1025.4 - 0.0
24/06:00pm 17.5 14.4 5.4 45 5.8 ESE 11 15 6 8 1025.2 1025.3 0.0
24/05:30pm 18.4 14.9 3.6 37 6.9 ESE 11 17 6 9 1025.1 - 0.0
24/05:00pm 18.8 12.4 3.3 35 7.2 E 26 33 14 18 1025.0 - 0.0
24/04:30pm 19.2 14.1 4.0 36 7.2 ESE 20 32 11 17 1024.8 - 0.0
24/04:00pm 19.7 13.3 3.2 33 7.8 E 26 33 14 18 1024.9 - 0.0
24/03:30pm 19.9 13.8 2.9 32 8.0 ESE 24 39 13 21 1025.2 - 0.0
24/03:00pm 20.9 14.5 3.4 31 8.3 E 26 37 14 20 1025.1 1025.2 0.0
24/02:30pm 21.7 15.2 2.8 28 8.9 E 26 35 14 19 1025.2 - 0.0
24/02:00pm 20.7 14.3 3.0 31 8.3 E 26 37 14 20 1025.0 - 0.0
24/01:30pm 20.7 13.8 2.7 30 8.4 E 28 35 15 19 1025.4 - 0.0
24/01:00pm 19.7 12.9 2.9 33 7.8 E 28 35 15 19 1026.0 - 0.0
24/12:30pm 19.6 11.5 3.1 33 7.7 E 35 44 19 24 1026.3 - 0.0
24/12:00pm 18.9 11.7 3.2 35 7.3 E 30 43 16 23 1027.0 1027.1 0.0
24/11:30am 19.0 11.5 3.3 35 7.4 E 32 44 17 24 1027.3 - 0.0
24/11:00am 18.0 10.2 2.9 36 7.0 E 33 48 18 26 1027.8 - 0.0
24/10:30am 16.8 9.2 2.9 39 6.3 E 32 43 17 23 1028.4 - 0.0
24/10:10am 16.5 9.3 3.0 40 6.2 E 30 48 16 26 1028.6 - 0.0
24/10:00am 16.1 8.3 2.7 40 6.1 E 33 44 18 24 1028.7 - 0.0
24/09:30am 16.1 8.4 3.3 42 5.9 E 33 48 18 26 1029.0 - 0.0
24/09:11am 15.4 7.9 3.2 44 5.5 E 32 52 17 28 1029.1 - 0.0
24/09:00am 15.0 7.8 3.2 45 5.3 E 30 43 16 23 1029.1 1029.2 0.0
24/08:30am 13.6 7.6 3.2 49 4.6 ENE 24 35 13 19 1029.3 - 0.0
24/08:00am 12.7 7.5 3.4 53 4.1 E 20 30 11 16 1029.1 - 0.0
24/07:30am 12.2 7.5 3.0 53 4.0 E 17 30 9 16 1028.6 - 0.0
24/07:00am 11.1 6.8 3.3 58 3.4 E 15 24 8 13 1028.5 - 0.0
24/06:30am 11.3 6.6 3.3 58 3.5 ESE 17 28 9 15 1028.0 - 0.0
24/06:00am 11.2 6.6 3.7 60 3.3 ESE 17 24 9 13 1027.5 1027.6 0.0
24/05:30am 11.3 6.8 4.1 61 3.2 E 17 30 9 16 1027.3 - 0.0
24/05:00am 11.8 7.6 3.9 58 3.5 E 15 22 8 12 1027.1 - 0.0
24/04:30am 12.0 8.2 3.9 57 3.6 ESE 13 24 7 13 1027.0 - 0.0
24/04:00am 12.2 7.6 3.9 57 3.7 E 17 28 9 15 1026.7 - 0.0
24/03:30am 12.6 8.0 3.9 55 3.9 ESE 17 26 9 14 1026.7 - 0.0
24/03:00am 12.9 7.0 4.0 54 4.0 ESE 24 39 13 21 1026.6 1026.7 0.0
24/02:30am 13.1 8.1 4.5 56 3.9 ESE 20 30 11 16 1026.9 - 0.0
24/02:00am 13.4 7.9 6.0 61 3.5 ESE 24 33 13 18 1027.1 - 0.0
24/01:30am 14.0 7.9 6.5 60 3.6 ESE 28 41 15 22 1027.2 - 0.0
24/01:00am 14.4 9.6 7.5 63 3.4 ESE 22 33 12 18 1027.0 - 0.0
24/12:30am 14.6 8.4 7.9 64 3.3 ESE 30 39 16 21 1026.8 - 0.0
24/12:09am 15.2 9.3 7.7 61 3.7 E 28 46 15 25 1026.7 - 0.0
24/12:00am 15.3 9.5 7.9 61 3.7 ESE 28 37 15 20 1026.6 1026.7 0.0
 
Date/Time
WST
Temp
°C
App
Temp
°C
Dew
Point
Rel
Hum
%
Delta-T
°C
Wind Press
QNH
hPa
Press
MSL
hPa
Rain
since 9 am
mm
Dir
 
Spd
km/h
Gust
km/h
Spd
kts
Gust
kts
23/11:30pm 15.9 9.5 8.4 61 3.8 ESE 32 43 17 23 1026.1 - 0.0
23/11:00pm 16.4 10.9 9.0 61 3.8 ESE 28 41 15 22 1025.8 - 0.0
23/10:30pm 17.3 12.8 8.7 57 4.4 ESE 22 30 12 16 1025.7 - 0.0
23/10:00pm 17.6 13.7 8.6 55 4.6 ESE 19 30 10 16 1025.5 - 0.0
23/09:30pm 18.0 14.4 8.4 53 4.9 ESE 17 26 9 14 1025.2 - 0.0
23/09:00pm 18.1 14.0 8.8 54 4.8 ESE 20 30 11 16 1025.0 1025.1 0.0
23/08:30pm 19.0 15.0 8.3 50 5.5 SE 19 24 10 13 1024.8 - 0.0
23/08:00pm 19.0 14.9 8.6 51 5.4 SE 20 30 11 16 1024.5 - 0.0
23/07:30pm 19.5 15.9 8.2 48 5.8 SSE 17 22 9 12 1024.2 - 0.0
23/07:00pm 19.6 16.1 8.6 49 5.7 SSE 17 22 9 12 1024.0 - 0.0
23/06:30pm 20.2 16.8 9.0 48 5.9 SE 17 20 9 11 1023.6 - 0.0
23/06:00pm 21.0 16.9 8.8 45 6.4 SE 20 30 11 16 1023.2 1023.3 0.0
23/05:30pm 21.9 18.0 9.6 45 6.6 ESE 20 28 11 15 1022.9 - 0.0
23/05:00pm 23.0 17.6 9.4 42 7.3 SE 28 35 15 19 1022.7 - 0.0
23/04:30pm 23.8 18.8 9.4 40 7.8 ESE 26 33 14 18 1022.5 - 0.0

Other Formats:

Comma delimited format used in spreadsheet applications
http://www.bom.gov.au/fwo/IDW60801/IDW60801.94610.axf

JavaScript Object Notation format (JSON) in row-major order
http://www.bom.gov.au/fwo/IDW60801/IDW60801.94610.json